sensor_id;sensor_type;location;lat;lon;timestamp;pressure;altitude;pressure_sealevel;temperature;humidity
22662;BME280;11497;52.222;21.246;2023-02-28T00:01:35;101921.13;;;-5.91;86.97
22662;BME280;11497;52.222;21.246;2023-02-28T00:04:03;101926.75;;;-5.97;87.44
22662;BME280;11497;52.222;21.246;2023-02-28T00:06:31;101918.13;;;-5.99;87.50
22662;BME280;11497;52.222;21.246;2023-02-28T00:08:58;101927.84;;;-6.08;87.74
22662;BME280;11497;52.222;21.246;2023-02-28T00:11:26;101929.59;;;-6.07;87.98
22662;BME280;11497;52.222;21.246;2023-02-28T00:13:55;101925.09;;;-6.11;88.33
22662;BME280;11497;52.222;21.246;2023-02-28T00:16:23;101923.94;;;-6.16;88.20
22662;BME280;11497;52.222;21.246;2023-02-28T00:18:51;101930.72;;;-6.17;88.51
22662;BME280;11497;52.222;21.246;2023-02-28T00:21:20;101936.88;;;-6.13;88.90
22662;BME280;11497;52.222;21.246;2023-02-28T00:23:48;101936.78;;;-6.15;88.84
22662;BME280;11497;52.222;21.246;2023-02-28T00:26:16;101940.03;;;-6.17;89.07
22662;BME280;11497;52.222;21.246;2023-02-28T00:28:45;101936.41;;;-6.06;89.21
22662;BME280;11497;52.222;21.246;2023-02-28T00:31:13;101934.94;;;-6.17;89.06
22662;BME280;11497;52.222;21.246;2023-02-28T00:33:41;101943.97;;;-6.22;89.35
22662;BME280;11497;52.222;21.246;2023-02-28T00:36:10;101938.88;;;-6.22;89.60
22662;BME280;11497;52.222;21.246;2023-02-28T00:38:39;101939.75;;;-6.22;89.64
22662;BME280;11497;52.222;21.246;2023-02-28T00:41:08;101942.91;;;-6.26;89.99
22662;BME280;11497;52.222;21.246;2023-02-28T00:43:39;101941.66;;;-6.32;90.52
22662;BME280;11497;52.222;21.246;2023-02-28T00:46:08;101945.59;;;-6.38;90.46
22662;BME280;11497;52.222;21.246;2023-02-28T00:48:36;101938.06;;;-6.36;90.70
22662;BME280;11497;52.222;21.246;2023-02-28T00:51:04;101941.41;;;-6.37;90.79
22662;BME280;11497;52.222;21.246;2023-02-28T00:53:32;101936.25;;;-6.24;91.33
22662;BME280;11497;52.222;21.246;2023-02-28T00:56:00;101924.09;;;-6.28;91.06
22662;BME280;11497;52.222;21.246;2023-02-28T00:58:28;101934.63;;;-6.37;90.97
22662;BME280;11497;52.222;21.246;2023-02-28T01:00:57;101928.56;;;-6.39;91.45
22662;BME280;11497;52.222;21.246;2023-02-28T01:03:25;101933.47;;;-6.42;91.33
22662;BME280;11497;52.222;21.246;2023-02-28T01:05:53;101927.97;;;-6.34;91.66
22662;BME280;11497;52.222;21.246;2023-02-28T01:08:21;101929.66;;;-6.20;91.65
22662;BME280;11497;52.222;21.246;2023-02-28T01:10:50;101931.84;;;-6.26;91.68
22662;BME280;11497;52.222;21.246;2023-02-28T01:13:18;101926.56;;;-6.29;91.66
22662;BME280;11497;52.222;21.246;2023-02-28T01:15:52;101924.06;;;-6.43;91.94
22662;BME280;11497;52.222;21.246;2023-02-28T01:18:21;101929.53;;;-6.51;92.01
22662;BME280;11497;52.222;21.246;2023-02-28T01:20:49;101932.78;;;-6.54;92.30
22662;BME280;11497;52.222;21.246;2023-02-28T01:23:20;101940.41;;;-6.54;92.28
22662;BME280;11497;52.222;21.246;2023-02-28T01:25:51;101926.31;;;-6.62;92.85
22662;BME280;11497;52.222;21.246;2023-02-28T01:28:19;101930.44;;;-6.64;92.80
22662;BME280;11497;52.222;21.246;2023-02-28T01:30:49;101917.34;;;-6.70;93.36
22662;BME280;11497;52.222;21.246;2023-02-28T01:33:17;101927.53;;;-6.70;93.21
22662;BME280;11497;52.222;21.246;2023-02-28T01:35:45;101933.00;;;-6.64;93.58
22662;BME280;11497;52.222;21.246;2023-02-28T01:38:13;101941.28;;;-6.53;93.40
22662;BME280;11497;52.222;21.246;2023-02-28T01:40:50;101938.94;;;-6.50;93.69
22662;BME280;11497;52.222;21.246;2023-02-28T01:43:25;101943.06;;;-6.38;93.52
22662;BME280;11497;52.222;21.246;2023-02-28T01:45:56;101948.22;;;-6.51;93.64
22662;BME280;11497;52.222;21.246;2023-02-28T01:48:35;101940.03;;;-6.60;93.57
22662;BME280;11497;52.222;21.246;2023-02-28T01:51:10;101952.50;;;-6.64;93.68
22662;BME280;11497;52.222;21.246;2023-02-28T01:53:46;101941.84;;;-6.72;93.72
22662;BME280;11497;52.222;21.246;2023-02-28T01:56:20;101939.88;;;-6.76;93.66
22662;BME280;11497;52.222;21.246;2023-02-28T01:58:51;101940.84;;;-6.74;94.33
22662;BME280;11497;52.222;21.246;2023-02-28T02:01:21;101945.34;;;-6.70;93.95
22662;BME280;11497;52.222;21.246;2023-02-28T02:03:56;101940.34;;;-6.68;94.51
22662;BME280;11497;52.222;21.246;2023-02-28T02:06:29;101936.31;;;-6.65;94.21
22662;BME280;11497;52.222;21.246;2023-02-28T02:08:57;101935.56;;;-6.77;94.23
22662;BME280;11497;52.222;21.246;2023-02-28T02:11:26;101942.06;;;-6.82;94.53
22662;BME280;11497;52.222;21.246;2023-02-28T02:25:43;101945.19;;;-6.86;94.97
22662;BME280;11497;52.222;21.246;2023-02-28T02:48:15;101945.69;;;-6.92;95.29
22662;BME280;11497;52.222;21.246;2023-02-28T02:50:53;101948.63;;;-6.86;95.21
22662;BME280;11497;52.222;21.246;2023-02-28T02:53:28;101942.19;;;-6.94;95.52
22662;BME280;11497;52.222;21.246;2023-02-28T02:56:02;101949.66;;;-6.97;95.53
22662;BME280;11497;52.222;21.246;2023-02-28T02:58:35;101958.84;;;-6.99;95.57
22662;BME280;11497;52.222;21.246;2023-02-28T03:01:16;101954.25;;;-7.05;95.68
22662;BME280;11497;52.222;21.246;2023-02-28T03:03:58;101957.59;;;-7.06;95.47
22662;BME280;11497;52.222;21.246;2023-02-28T03:06:27;101956.75;;;-6.91;95.49
22662;BME280;11497;52.222;21.246;2023-02-28T03:08:55;101956.22;;;-7.00;95.78
22662;BME280;11497;52.222;21.246;2023-02-28T03:11:23;101953.47;;;-7.03;95.56
22662;BME280;11497;52.222;21.246;2023-02-28T03:16:44;101955.25;;;-7.16;95.82
22662;BME280;11497;52.222;21.246;2023-02-28T03:30:49;101961.31;;;-7.27;95.46
22662;BME280;11497;52.222;21.246;2023-02-28T03:33:31;101958.19;;;-7.23;95.61
22662;BME280;11497;52.222;21.246;2023-02-28T03:36:09;101953.75;;;-6.99;95.82
22662;BME280;11497;52.222;21.246;2023-02-28T03:38:55;101957.69;;;-7.17;95.78
22662;BME280;11497;52.222;21.246;2023-02-28T03:41:43;101966.31;;;-7.15;96.01
22662;BME280;11497;52.222;21.246;2023-02-28T03:44:19;101962.69;;;-7.19;96.05
22662;BME280;11497;52.222;21.246;2023-02-28T03:47:07;101969.72;;;-7.28;96.01
22662;BME280;11497;52.222;21.246;2023-02-28T03:52:23;101968.84;;;-7.28;96.36
22662;BME280;11497;52.222;21.246;2023-02-28T03:54:58;101967.97;;;-7.29;96.38
22662;BME280;11497;52.222;21.246;2023-02-28T04:00:12;101974.31;;;-7.35;96.49
22662;BME280;11497;52.222;21.246;2023-02-28T04:02:41;101966.19;;;-7.30;96.14
22662;BME280;11497;52.222;21.246;2023-02-28T04:05:09;101963.47;;;-7.33;96.38
22662;BME280;11497;52.222;21.246;2023-02-28T04:07:38;101968.75;;;-7.30;96.60
22662;BME280;11497;52.222;21.246;2023-02-28T04:10:07;101964.44;;;-7.31;96.23
22662;BME280;11497;52.222;21.246;2023-02-28T04:12:34;101965.81;;;-7.36;96.56
22662;BME280;11497;52.222;21.246;2023-02-28T04:15:03;101964.88;;;-7.38;96.17
22662;BME280;11497;52.222;21.246;2023-02-28T04:17:30;101966.63;;;-7.37;96.56
22662;BME280;11497;52.222;21.246;2023-02-28T04:19:58;101964.78;;;-7.40;96.18
22662;BME280;11497;52.222;21.246;2023-02-28T04:22:26;101966.31;;;-7.42;96.62
22662;BME280;11497;52.222;21.246;2023-02-28T04:24:54;101970.53;;;-7.42;96.23
22662;BME280;11497;52.222;21.246;2023-02-28T04:27:22;101978.75;;;-7.46;96.19
22662;BME280;11497;52.222;21.246;2023-02-28T04:29:50;101968.56;;;-7.46;96.19
22662;BME280;11497;52.222;21.246;2023-02-28T04:32:18;101967.31;;;-7.40;96.20
22662;BME280;11497;52.222;21.246;2023-02-28T04:34:46;101977.16;;;-7.31;96.60
22662;BME280;11497;52.222;21.246;2023-02-28T04:37:13;101968.88;;;-7.42;96.15
22662;BME280;11497;52.222;21.246;2023-02-28T04:39:42;101971.03;;;-7.48;96.41
22662;BME280;11497;52.222;21.246;2023-02-28T04:42:11;101973.06;;;-7.55;96.08
22662;BME280;11497;52.222;21.246;2023-02-28T04:44:39;101965.72;;;-7.51;96.29
22662;BME280;11497;52.222;21.246;2023-02-28T04:47:07;101970.13;;;-7.48;96.43
22662;BME280;11497;52.222;21.246;2023-02-28T04:49:35;101972.38;;;-7.53;96.13
22662;BME280;11497;52.222;21.246;2023-02-28T04:52:02;101978.34;;;-7.52;96.12
22662;BME280;11497;52.222;21.246;2023-02-28T04:54:31;101967.69;;;-7.47;96.14
22662;BME280;11497;52.222;21.246;2023-02-28T04:56:58;101973.06;;;-7.55;96.14
22662;BME280;11497;52.222;21.246;2023-02-28T04:59:26;101973.66;;;-7.59;96.40
22662;BME280;11497;52.222;21.246;2023-02-28T05:01:54;101977.78;;;-7.48;96.57
22662;BME280;11497;52.222;21.246;2023-02-28T05:04:22;101984.50;;;-7.49;96.12
22662;BME280;11497;52.222;21.246;2023-02-28T05:06:50;101985.59;;;-7.45;96.20
22662;BME280;11497;52.222;21.246;2023-02-28T05:09:18;101980.50;;;-7.45;96.57
22662;BME280;11497;52.222;21.246;2023-02-28T05:11:45;101992.03;;;-7.50;96.19
22662;BME280;11497;52.222;21.246;2023-02-28T05:14:14;101989.81;;;-7.46;96.29
22662;BME280;11497;52.222;21.246;2023-02-28T05:16:42;101995.47;;;-7.50;96.08
22662;BME280;11497;52.222;21.246;2023-02-28T05:19:10;101998.91;;;-7.49;96.81
22662;BME280;11497;52.222;21.246;2023-02-28T05:21:49;102007.03;;;-7.42;96.76
22662;BME280;11497;52.222;21.246;2023-02-28T05:24:18;102007.97;;;-7.26;96.62
22662;BME280;11497;52.222;21.246;2023-02-28T05:26:53;102011.78;;;-7.33;96.32
22662;BME280;11497;52.222;21.246;2023-02-28T05:29:22;102010.91;;;-7.33;96.49
22662;BME280;11497;52.222;21.246;2023-02-28T05:31:50;102021.38;;;-7.29;96.27
22662;BME280;11497;52.222;21.246;2023-02-28T05:34:18;102016.13;;;-7.06;96.66
22662;BME280;11497;52.222;21.246;2023-02-28T05:36:46;102012.06;;;-6.89;96.48
22662;BME280;11497;52.222;21.246;2023-02-28T05:39:14;102025.25;;;-6.68;96.01
22662;BME280;11497;52.222;21.246;2023-02-28T05:41:43;102029.47;;;-6.55;96.00
22662;BME280;11497;52.222;21.246;2023-02-28T05:44:11;102024.91;;;-6.46;95.26
22662;BME280;11497;52.222;21.246;2023-02-28T05:46:39;102035.97;;;-6.46;94.92
22662;BME280;11497;52.222;21.246;2023-02-28T05:49:07;102027.72;;;-6.42;94.57
22662;BME280;11497;52.222;21.246;2023-02-28T05:51:35;102034.97;;;-6.34;94.76
22662;BME280;11497;52.222;21.246;2023-02-28T05:54:07;102035.91;;;-6.19;94.31
22662;BME280;11497;52.222;21.246;2023-02-28T05:56:35;102034.31;;;-6.17;94.31
22662;BME280;11497;52.222;21.246;2023-02-28T05:59:05;102034.69;;;-6.11;94.31
22662;BME280;11497;52.222;21.246;2023-02-28T06:01:41;102039.63;;;-5.99;93.88
22662;BME280;11497;52.222;21.246;2023-02-28T06:04:11;102041.75;;;-5.48;93.96
22662;BME280;11497;52.222;21.246;2023-02-28T06:06:55;102043.38;;;-4.59;93.55
22662;BME280;11497;52.222;21.246;2023-02-28T06:09:25;102045.34;;;-3.56;93.17
22662;BME280;11497;52.222;21.246;2023-02-28T06:11:53;102046.19;;;-2.68;91.79
22662;BME280;11497;52.222;21.246;2023-02-28T06:14:21;102047.16;;;-1.90;89.48
22662;BME280;11497;52.222;21.246;2023-02-28T06:16:49;102039.56;;;-1.06;86.40
22662;BME280;11497;52.222;21.246;2023-02-28T06:19:17;102045.06;;;-0.07;82.98
22662;BME280;11497;52.222;21.246;2023-02-28T06:21:45;102039.94;;;0.18;79.20
22662;BME280;11497;52.222;21.246;2023-02-28T06:24:16;102038.84;;;0.86;76.57
22662;BME280;11497;52.222;21.246;2023-02-28T06:26:43;102046.63;;;1.43;72.97
22662;BME280;11497;52.222;21.246;2023-02-28T06:29:11;102045.84;;;1.76;69.23
22662;BME280;11497;52.222;21.246;2023-02-28T06:31:39;102044.81;;;1.99;66.73
22662;BME280;11497;52.222;21.246;2023-02-28T06:34:07;102040.47;;;2.29;65.06
22662;BME280;11497;52.222;21.246;2023-02-28T06:36:35;102039.78;;;3.04;63.75
22662;BME280;11497;52.222;21.246;2023-02-28T06:39:03;102027.63;;;3.78;61.57
22662;BME280;11497;52.222;21.246;2023-02-28T06:41:31;102027.72;;;4.76;59.71
22662;BME280;11497;52.222;21.246;2023-02-28T06:44:18;102023.66;;;5.52;56.95
22662;BME280;11497;52.222;21.246;2023-02-28T06:46:46;102018.44;;;6.20;54.67
22662;BME280;11497;52.222;21.246;2023-02-28T06:49:15;102016.22;;;6.63;52.22
22662;BME280;11497;52.222;21.246;2023-02-28T06:51:44;102014.25;;;7.51;50.39
22662;BME280;11497;52.222;21.246;2023-02-28T06:54:15;102005.25;;;7.00;48.01
22662;BME280;11497;52.222;21.246;2023-02-28T06:56:43;102012.16;;;6.00;47.99
22662;BME280;11497;52.222;21.246;2023-02-28T06:59:11;102009.31;;;5.82;48.39
22662;BME280;11497;52.222;21.246;2023-02-28T07:01:39;102005.44;;;6.22;47.86
22662;BME280;11497;52.222;21.246;2023-02-28T07:04:07;102005.03;;;5.87;46.99
22662;BME280;11497;52.222;21.246;2023-02-28T07:06:35;102004.31;;;5.30;47.47
22662;BME280;11497;52.222;21.246;2023-02-28T07:09:03;101999.91;;;5.25;48.14
22662;BME280;11497;52.222;21.246;2023-02-28T07:11:31;102010.47;;;6.04;47.83
22662;BME280;11497;52.222;21.246;2023-02-28T07:13:59;101993.44;;;6.34;46.40
22662;BME280;11497;52.222;21.246;2023-02-28T07:16:27;102008.06;;;6.23;45.89
22662;BME280;11497;52.222;21.246;2023-02-28T07:18:55;102000.00;;;5.97;45.55
22662;BME280;11497;52.222;21.246;2023-02-28T07:21:23;102001.03;;;6.16;46.10
22662;BME280;11497;52.222;21.246;2023-02-28T07:23:52;102001.75;;;6.00;46.12
22662;BME280;11497;52.222;21.246;2023-02-28T07:26:20;101997.19;;;5.84;45.54
22662;BME280;11497;52.222;21.246;2023-02-28T07:28:48;101995.09;;;6.28;45.85
22662;BME280;11497;52.222;21.246;2023-02-28T07:31:17;101999.75;;;6.61;45.28
22662;BME280;11497;52.222;21.246;2023-02-28T07:33:46;102003.09;;;6.51;43.70
22662;BME280;11497;52.222;21.246;2023-02-28T07:36:16;101985.25;;;6.96;43.88
22662;BME280;11497;52.222;21.246;2023-02-28T07:38:47;101980.31;;;7.33;43.18
22662;BME280;11497;52.222;21.246;2023-02-28T07:41:19;101992.69;;;7.95;41.24
22662;BME280;11497;52.222;21.246;2023-02-28T07:43:48;101987.50;;;8.06;40.46
22662;BME280;11497;52.222;21.246;2023-02-28T07:46:17;101992.75;;;8.24;39.95
22662;BME280;11497;52.222;21.246;2023-02-28T07:48:45;101990.19;;;8.34;39.33
22662;BME280;11497;52.222;21.246;2023-02-28T07:51:13;101993.69;;;9.04;38.94
22662;BME280;11497;52.222;21.246;2023-02-28T07:53:41;101997.81;;;9.79;38.33
22662;BME280;11497;52.222;21.246;2023-02-28T07:56:09;101987.09;;;11.26;36.88
22662;BME280;11497;52.222;21.246;2023-02-28T07:58:38;102001.34;;;12.42;35.14
22662;BME280;11497;52.222;21.246;2023-02-28T08:01:07;101999.31;;;13.57;33.74
22662;BME280;11497;52.222;21.246;2023-02-28T08:03:36;101996.28;;;13.77;32.38
22662;BME280;11497;52.222;21.246;2023-02-28T08:06:06;102006.53;;;14.29;31.13
22662;BME280;11497;52.222;21.246;2023-02-28T08:08:35;101996.41;;;14.84;30.10
22662;BME280;11497;52.222;21.246;2023-02-28T08:11:03;101992.59;;;15.28;29.18
22662;BME280;11497;52.222;21.246;2023-02-28T08:13:31;102005.09;;;15.21;28.71
22662;BME280;11497;52.222;21.246;2023-02-28T08:16:01;102010.16;;;15.61;27.25
22662;BME280;11497;52.222;21.246;2023-02-28T08:18:30;102005.63;;;16.52;26.58
22662;BME280;11497;52.222;21.246;2023-02-28T08:20:58;102011.78;;;16.24;26.02
22662;BME280;11497;52.222;21.246;2023-02-28T08:23:26;102002.84;;;16.56;25.78
22662;BME280;11497;52.222;21.246;2023-02-28T08:25:55;102000.25;;;16.55;25.13
22662;BME280;11497;52.222;21.246;2023-02-28T08:28:24;101996.59;;;17.12;24.90
22662;BME280;11497;52.222;21.246;2023-02-28T08:30:54;101998.97;;;17.19;24.46
22662;BME280;11497;52.222;21.246;2023-02-28T08:33:23;102000.34;;;16.52;23.87
22662;BME280;11497;52.222;21.246;2023-02-28T08:35:55;101998.47;;;16.83;23.81
22662;BME280;11497;52.222;21.246;2023-02-28T08:38:23;102006.88;;;16.94;23.51
22662;BME280;11497;52.222;21.246;2023-02-28T08:40:58;102005.47;;;17.34;23.46
22662;BME280;11497;52.222;21.246;2023-02-28T08:43:27;101998.72;;;17.50;23.30
22662;BME280;11497;52.222;21.246;2023-02-28T08:45:55;102008.78;;;17.16;22.90
22662;BME280;11497;52.222;21.246;2023-02-28T08:48:26;102009.63;;;16.91;22.68
22662;BME280;11497;52.222;21.246;2023-02-28T08:51:04;102012.88;;;17.00;23.02
22662;BME280;11497;52.222;21.246;2023-02-28T08:53:35;102000.50;;;16.75;22.62
22662;BME280;11497;52.222;21.246;2023-02-28T08:56:09;102008.66;;;17.44;22.66
22662;BME280;11497;52.222;21.246;2023-02-28T08:58:38;102018.50;;;17.88;22.54
22662;BME280;11497;52.222;21.246;2023-02-28T09:01:32;102011.31;;;17.44;22.16
22662;BME280;11497;52.222;21.246;2023-02-28T09:04:01;102016.22;;;17.05;22.19
22662;BME280;11497;52.222;21.246;2023-02-28T09:06:29;102011.78;;;16.80;22.12
22662;BME280;11497;52.222;21.246;2023-02-28T09:08:58;102004.34;;;16.09;22.40
22662;BME280;11497;52.222;21.246;2023-02-28T09:11:27;102003.78;;;16.00;22.80
22662;BME280;11497;52.222;21.246;2023-02-28T09:13:55;102012.00;;;16.99;22.55
22662;BME280;11497;52.222;21.246;2023-02-28T09:16:23;102011.25;;;16.95;22.30
22662;BME280;11497;52.222;21.246;2023-02-28T09:18:51;102022.47;;;16.77;22.26
22662;BME280;11497;52.222;21.246;2023-02-28T09:21:19;102018.47;;;16.90;22.40
22662;BME280;11497;52.222;21.246;2023-02-28T09:23:49;102016.44;;;16.99;22.04
22662;BME280;11497;52.222;21.246;2023-02-28T09:26:20;102024.47;;;16.95;22.05
22662;BME280;11497;52.222;21.246;2023-02-28T09:28:49;102015.72;;;17.20;21.95
22662;BME280;11497;52.222;21.246;2023-02-28T09:31:22;102013.50;;;16.53;22.12
22662;BME280;11497;52.222;21.246;2023-02-28T09:33:52;102013.25;;;16.61;22.20
22662;BME280;11497;52.222;21.246;2023-02-28T09:36:21;102014.06;;;16.63;22.18
22662;BME280;11497;52.222;21.246;2023-02-28T09:38:53;102012.91;;;16.73;21.96
22662;BME280;11497;52.222;21.246;2023-02-28T09:41:23;102008.63;;;16.69;22.01
22662;BME280;11497;52.222;21.246;2023-02-28T09:43:56;102015.44;;;16.76;22.08
22662;BME280;11497;52.222;21.246;2023-02-28T09:46:35;102007.03;;;15.78;22.10
22662;BME280;11497;52.222;21.246;2023-02-28T09:49:14;102010.22;;;15.27;22.60
22662;BME280;11497;52.222;21.246;2023-02-28T09:51:55;102009.88;;;15.40;22.92
22662;BME280;11497;52.222;21.246;2023-02-28T09:54:30;102012.56;;;15.38;22.93
22662;BME280;11497;52.222;21.246;2023-02-28T09:57:07;102008.53;;;15.57;23.02
22662;BME280;11497;52.222;21.246;2023-02-28T10:05:09;102006.88;;;15.53;23.41
22662;BME280;11497;52.222;21.246;2023-02-28T10:08:01;102012.97;;;15.57;22.93
22662;BME280;11497;52.222;21.246;2023-02-28T10:10:34;102008.34;;;15.63;23.13
22662;BME280;11497;52.222;21.246;2023-02-28T10:13:14;102003.59;;;15.44;23.23
22662;BME280;11497;52.222;21.246;2023-02-28T10:15:46;102014.09;;;14.80;23.44
22662;BME280;11497;52.222;21.246;2023-02-28T10:18:20;102012.69;;;14.67;23.25
22662;BME280;11497;52.222;21.246;2023-02-28T10:20:51;102017.03;;;13.89;24.22
22662;BME280;11497;52.222;21.246;2023-02-28T10:23:27;102011.00;;;14.26;24.17
22662;BME280;11497;52.222;21.246;2023-02-28T10:26:13;102004.16;;;14.56;24.19
22662;BME280;11497;52.222;21.246;2023-02-28T10:28:43;102007.41;;;14.67;23.85
22662;BME280;11497;52.222;21.246;2023-02-28T10:31:18;102006.25;;;14.42;23.94
22662;BME280;11497;52.222;21.246;2023-02-28T10:33:47;102001.84;;;14.02;24.26
22662;BME280;11497;52.222;21.246;2023-02-28T10:36:18;102010.84;;;11.89;25.03
22662;BME280;11497;52.222;21.246;2023-02-28T10:38:47;101996.72;;;10.24;26.99
22662;BME280;11497;52.222;21.246;2023-02-28T10:41:26;102011.97;;;8.73;28.36
22662;BME280;11497;52.222;21.246;2023-02-28T10:44:19;102007.41;;;7.84;29.80
22662;BME280;11497;52.222;21.246;2023-02-28T10:46:49;102008.97;;;7.39;31.18
22662;BME280;11497;52.222;21.246;2023-02-28T10:49:27;102008.66;;;6.90;31.85
22662;BME280;11497;52.222;21.246;2023-02-28T10:51:59;102006.66;;;6.59;32.80
22662;BME280;11497;52.222;21.246;2023-02-28T10:54:34;102006.53;;;6.44;33.53
22662;BME280;11497;52.222;21.246;2023-02-28T10:57:19;102000.31;;;6.29;33.72
22662;BME280;11497;52.222;21.246;2023-02-28T11:00:05;101994.72;;;5.90;34.81
22662;BME280;11497;52.222;21.246;2023-02-28T11:02:36;101997.25;;;5.87;35.25
22662;BME280;11497;52.222;21.246;2023-02-28T11:05:41;101984.41;;;5.31;35.51
22662;BME280;11497;52.222;21.246;2023-02-28T11:10:48;101980.97;;;5.32;36.02
22662;BME280;11497;52.222;21.246;2023-02-28T11:13:25;101977.34;;;5.21;36.61
22662;BME280;11497;52.222;21.246;2023-02-28T11:15:55;101973.56;;;4.97;36.63
22662;BME280;11497;52.222;21.246;2023-02-28T11:18:29;101969.09;;;4.89;36.86
22662;BME280;11497;52.222;21.246;2023-02-28T11:20:59;101960.28;;;4.79;38.00
22662;BME280;11497;52.222;21.246;2023-02-28T11:23:32;101956.97;;;4.88;38.13
22662;BME280;11497;52.222;21.246;2023-02-28T11:26:04;101955.00;;;4.70;38.59
22662;BME280;11497;52.222;21.246;2023-02-28T11:28:38;101952.31;;;4.64;39.04
22662;BME280;11497;52.222;21.246;2023-02-28T11:33:49;101952.34;;;4.67;39.16
22662;BME280;11497;52.222;21.246;2023-02-28T11:36:30;101947.09;;;4.64;39.41
22662;BME280;11497;52.222;21.246;2023-02-28T11:39:08;101940.50;;;4.84;39.47
22662;BME280;11497;52.222;21.246;2023-02-28T11:44:40;101942.53;;;4.49;39.33
22662;BME280;11497;52.222;21.246;2023-02-28T11:47:27;101930.56;;;4.56;39.24
22662;BME280;11497;52.222;21.246;2023-02-28T11:52:55;101926.41;;;4.67;39.80
22662;BME280;11497;52.222;21.246;2023-02-28T11:55:47;101916.19;;;4.78;39.67
22662;BME280;11497;52.222;21.246;2023-02-28T11:58:20;101920.38;;;4.68;39.78
22662;BME280;11497;52.222;21.246;2023-02-28T12:01:02;101916.19;;;4.79;39.76
22662;BME280;11497;52.222;21.246;2023-02-28T12:10:00;101910.97;;;4.75;39.45
22662;BME280;11497;52.222;21.246;2023-02-28T12:13:41;101902.94;;;4.59;39.62
22662;BME280;11497;52.222;21.246;2023-02-28T12:16:07;101903.91;;;4.66;40.00
22662;BME280;11497;52.222;21.246;2023-02-28T12:21:14;101897.13;;;4.77;40.14
22662;BME280;11497;52.222;21.246;2023-02-28T12:26:25;101891.66;;;4.56;40.01
22662;BME280;11497;52.222;21.246;2023-02-28T12:31:55;101887.41;;;4.61;40.18
22662;BME280;11497;52.222;21.246;2023-02-28T12:34:29;101890.00;;;4.61;40.56
22662;BME280;11497;52.222;21.246;2023-02-28T12:37:03;101879.81;;;4.73;40.21
22662;BME280;11497;52.222;21.246;2023-02-28T12:39:44;101878.09;;;4.72;39.71
22662;BME280;11497;52.222;21.246;2023-02-28T12:42:30;101876.06;;;4.53;40.50
22662;BME280;11497;52.222;21.246;2023-02-28T12:45:08;101877.59;;;4.42;40.58
22662;BME280;11497;52.222;21.246;2023-02-28T12:47:39;101875.88;;;4.42;40.54
22662;BME280;11497;52.222;21.246;2023-02-28T12:50:10;101869.06;;;4.49;40.86
22662;BME280;11497;52.222;21.246;2023-02-28T13:01:21;101875.19;;;4.52;40.53
22662;BME280;11497;52.222;21.246;2023-02-28T13:10:00;101866.50;;;4.50;39.82
22662;BME280;11497;52.222;21.246;2023-02-28T13:12:30;101859.75;;;4.60;40.14
22662;BME280;11497;52.222;21.246;2023-02-28T13:15:18;101851.78;;;4.48;39.88
22662;BME280;11497;52.222;21.246;2023-02-28T13:17:51;101855.97;;;4.40;40.17
22662;BME280;11497;52.222;21.246;2023-02-28T13:20:30;101850.31;;;4.65;40.29
22662;BME280;11497;52.222;21.246;2023-02-28T13:23:01;101843.00;;;4.40;40.52
22662;BME280;11497;52.222;21.246;2023-02-28T13:28:12;101836.84;;;4.31;40.14
22662;BME280;11497;52.222;21.246;2023-02-28T13:38:46;101828.22;;;4.34;40.69
22662;BME280;11497;52.222;21.246;2023-02-28T13:46:36;101827.34;;;4.33;40.99
22662;BME280;11497;52.222;21.246;2023-02-28T14:00:02;101806.06;;;3.97;41.37
22662;BME280;11497;52.222;21.246;2023-02-28T14:05:21;101799.25;;;4.02;41.20
22662;BME280;11497;52.222;21.246;2023-02-28T14:08:04;101791.38;;;3.96;41.15
22662;BME280;11497;52.222;21.246;2023-02-28T14:11:08;101787.13;;;4.01;41.36
22662;BME280;11497;52.222;21.246;2023-02-28T14:13:45;101792.16;;;3.92;41.23
22662;BME280;11497;52.222;21.246;2023-02-28T14:16:17;101799.91;;;3.90;41.26
22662;BME280;11497;52.222;21.246;2023-02-28T14:19:00;101785.28;;;3.94;41.39
22662;BME280;11497;52.222;21.246;2023-02-28T14:21:34;101779.19;;;3.90;41.35
22662;BME280;11497;52.222;21.246;2023-02-28T14:33:18;101773.66;;;3.67;42.36
22662;BME280;11497;52.222;21.246;2023-02-28T14:36:40;101774.66;;;3.76;42.70
22662;BME280;11497;52.222;21.246;2023-02-28T14:39:13;101772.59;;;3.56;42.21
22662;BME280;11497;52.222;21.246;2023-02-28T14:41:43;101772.38;;;3.44;42.54
22662;BME280;11497;52.222;21.246;2023-02-28T14:44:24;101772.34;;;3.41;42.67
22662;BME280;11497;52.222;21.246;2023-02-28T14:46:54;101776.88;;;3.54;42.93
22662;BME280;11497;52.222;21.246;2023-02-28T14:49:28;101772.47;;;3.50;43.09
22662;BME280;11497;52.222;21.246;2023-02-28T14:54:38;101763.56;;;3.33;42.70
22662;BME280;11497;52.222;21.246;2023-02-28T14:57:20;101768.72;;;3.33;42.36
22662;BME280;11497;52.222;21.246;2023-02-28T15:00:21;101767.88;;;3.34;42.87
22662;BME280;11497;52.222;21.246;2023-02-28T15:02:49;101765.13;;;3.25;43.13
22662;BME280;11497;52.222;21.246;2023-02-28T15:08:11;101765.81;;;3.16;42.93
22662;BME280;11497;52.222;21.246;2023-02-28T15:10:51;101754.28;;;2.97;43.17
22662;BME280;11497;52.222;21.246;2023-02-28T15:13:20;101758.69;;;3.03;43.74
22662;BME280;11497;52.222;21.246;2023-02-28T15:16:01;101764.44;;;2.88;43.97
22662;BME280;11497;52.222;21.246;2023-02-28T15:23:56;101767.06;;;2.49;44.95
22662;BME280;11497;52.222;21.246;2023-02-28T15:26:34;101770.47;;;2.47;45.10
22662;BME280;11497;52.222;21.246;2023-02-28T15:29:14;101768.50;;;2.37;45.14
22662;BME280;11497;52.222;21.246;2023-02-28T15:31:48;101765.72;;;2.27;45.78
22662;BME280;11497;52.222;21.246;2023-02-28T15:34:37;101766.47;;;2.23;45.76
22662;BME280;11497;52.222;21.246;2023-02-28T15:40:23;101755.69;;;2.02;46.17